createdAt,value
2019-03-29T00:00:13.746Z,8.56
2019-03-29T00:02:43.287Z,8.52
2019-03-29T00:05:12.624Z,8.48
2019-03-29T00:07:42.259Z,8.49
2019-03-29T00:10:11.862Z,8.46
2019-03-29T00:12:41.252Z,8.40
2019-03-29T00:15:10.613Z,8.28
2019-03-29T00:17:39.972Z,8.38
2019-03-29T00:20:10.977Z,8.43
2019-03-29T00:22:40.324Z,8.44
2019-03-29T00:25:09.687Z,8.46
2019-03-29T00:27:39.027Z,8.42
2019-03-29T00:30:08.384Z,8.36
2019-03-29T00:32:37.758Z,8.30
2019-03-29T00:35:08.366Z,8.36
2019-03-29T00:37:37.738Z,8.30
2019-03-29T00:40:07.849Z,8.28
2019-03-29T00:42:37.203Z,8.29
2019-03-29T00:45:08.410Z,8.30
2019-03-29T00:47:37.760Z,8.25
2019-03-29T00:50:10.154Z,8.27
2019-03-29T00:52:39.494Z,8.28
2019-03-29T00:55:08.848Z,8.40
2019-03-29T00:57:38.211Z,8.42
2019-03-29T01:00:08.974Z,8.39
2019-03-29T01:02:38.375Z,8.43
2019-03-29T01:05:07.796Z,8.36
2019-03-29T01:07:37.130Z,8.40
2019-03-29T01:10:07.996Z,8.36
2019-03-29T01:12:37.353Z,8.38
2019-03-29T01:15:10.536Z,8.36
2019-03-29T01:17:39.878Z,8.36
2019-03-29T01:20:09.799Z,8.36
2019-03-29T01:22:39.179Z,8.35
2019-03-29T01:25:08.680Z,8.34
2019-03-29T01:27:38.007Z,8.30
2019-03-29T01:30:07.866Z,8.31
2019-03-29T01:32:37.206Z,8.31
2019-03-29T01:35:09.063Z,8.29
2019-03-29T01:37:37.997Z,8.27
2019-03-29T01:40:09.012Z,8.24
2019-03-29T01:42:38.437Z,8.22
2019-03-29T01:45:08.557Z,8.19
2019-03-29T01:47:37.901Z,8.22
2019-03-29T01:50:08.135Z,8.17
2019-03-29T01:52:37.826Z,8.19
2019-03-29T01:55:07.742Z,8.19
2019-03-29T01:57:37.088Z,8.22
2019-03-29T02:00:06.718Z,8.18
2019-03-29T02:02:36.141Z,8.19
2019-03-29T02:05:07.523Z,8.21
2019-03-29T02:07:38.020Z,8.24
2019-03-29T02:10:09.521Z,8.27
2019-03-29T02:12:38.886Z,8.27
2019-03-29T02:15:08.682Z,8.24
2019-03-29T02:17:38.455Z,8.27
2019-03-29T02:20:07.981Z,8.29
2019-03-29T02:22:37.391Z,8.29
2019-03-29T02:25:08.413Z,8.30
2019-03-29T02:27:37.770Z,8.33
2019-03-29T02:30:07.643Z,8.32
2019-03-29T02:32:37.005Z,8.28
2019-03-29T02:35:06.592Z,8.35
2019-03-29T02:37:35.954Z,8.38
2019-03-29T02:40:06.834Z,8.32
2019-03-29T02:42:36.202Z,8.25
2019-03-29T02:45:06.487Z,8.24
2019-03-29T02:47:35.843Z,8.25
2019-03-29T02:50:08.556Z,8.24
2019-03-29T02:52:37.837Z,8.14
2019-03-29T02:55:07.977Z,8.10
2019-03-29T02:57:37.414Z,8.25
2019-03-29T03:00:09.107Z,8.28
2019-03-29T03:02:38.535Z,8.26
2019-03-29T03:05:09.681Z,8.24
2019-03-29T03:07:39.094Z,8.09
2019-03-29T03:10:12.105Z,8.09
2019-03-29T03:12:41.425Z,8.10
2019-03-29T03:15:10.953Z,8.07
2019-03-29T03:17:40.287Z,8.14
2019-03-29T03:20:15.403Z,8.16
2019-03-29T03:22:45.272Z,8.16
2019-03-29T03:25:14.625Z,8.19
2019-03-29T03:27:43.991Z,8.28
2019-03-29T03:30:13.420Z,8.26
2019-03-29T03:32:42.867Z,8.22
2019-03-29T03:35:13.810Z,8.22
2019-03-29T03:37:43.163Z,8.23
2019-03-29T03:40:12.553Z,8.09
2019-03-29T03:42:41.883Z,7.99
2019-03-29T03:45:11.222Z,7.93
2019-03-29T03:47:40.819Z,7.87
2019-03-29T03:50:39.889Z,7.83
2019-03-29T03:53:10.164Z,7.76
2019-03-29T03:55:40.017Z,7.61
2019-03-29T03:58:10.366Z,7.57
2019-03-29T04:00:56.115Z,7.58
2019-03-29T04:03:26.083Z,7.52
2019-03-29T04:05:55.518Z,7.44
2019-03-29T04:08:25.242Z,7.36
2019-03-29T04:10:54.579Z,7.39
2019-03-29T04:13:23.961Z,7.48
2019-03-29T04:15:53.319Z,7.51
2019-03-29T04:18:22.692Z,7.59
2019-03-29T04:20:52.033Z,7.56
2019-03-29T04:23:21.397Z,7.61
2019-03-29T04:25:50.766Z,7.67
2019-03-29T04:28:20.112Z,7.67
2019-03-29T04:30:49.496Z,7.66
2019-03-29T04:33:18.839Z,7.65
2019-03-29T04:35:48.187Z,7.64
2019-03-29T04:38:17.590Z,7.64
2019-03-29T04:40:46.919Z,7.61
2019-03-29T04:43:16.285Z,7.58
2019-03-29T04:45:45.703Z,7.62
2019-03-29T04:48:15.035Z,7.58
2019-03-29T04:50:44.400Z,7.59
2019-03-29T04:53:13.814Z,7.55
2019-03-29T04:55:43.203Z,7.46
2019-03-29T04:58:12.547Z,7.46
2019-03-29T05:00:41.950Z,7.46
2019-03-29T05:03:12.088Z,7.43
2019-03-29T05:05:41.432Z,7.43
2019-03-29T05:08:10.811Z,7.41
2019-03-29T05:10:40.145Z,7.39
2019-03-29T05:13:09.492Z,7.41
2019-03-29T05:15:38.936Z,7.39
2019-03-29T05:18:08.288Z,7.39
2019-03-29T05:20:37.662Z,7.40
2019-03-29T05:23:07.090Z,7.41
2019-03-29T05:25:36.422Z,7.41
2019-03-29T05:28:06.170Z,7.47
2019-03-29T05:30:35.510Z,7.43
2019-03-29T05:33:04.895Z,7.39
2019-03-29T05:35:34.244Z,7.33
2019-03-29T05:38:03.597Z,7.33
2019-03-29T05:40:35.148Z,7.32
2019-03-29T05:43:04.043Z,7.33
2019-03-29T05:45:33.389Z,7.38
2019-03-29T05:48:02.741Z,7.39
2019-03-29T05:50:32.195Z,7.43
2019-03-29T05:53:01.556Z,7.47
2019-03-29T05:55:32.862Z,7.54
2019-03-29T05:58:01.990Z,7.63
2019-03-29T06:00:31.409Z,7.68
2019-03-29T06:03:00.777Z,7.68
2019-03-29T06:05:30.128Z,7.67
2019-03-29T06:07:59.468Z,7.70
2019-03-29T06:10:28.842Z,7.74
2019-03-29T06:12:58.653Z,7.83
2019-03-29T06:15:28.019Z,7.86
2019-03-29T06:17:57.372Z,7.87
2019-03-29T06:20:26.804Z,7.90
2019-03-29T06:22:56.161Z,7.90
2019-03-29T06:25:25.529Z,7.96
2019-03-29T06:27:54.911Z,8.08
2019-03-29T06:30:30.707Z,8.14
2019-03-29T06:33:00.084Z,8.23
2019-03-29T06:35:32.552Z,8.42
2019-03-29T06:38:02.837Z,8.90
2019-03-29T06:40:32.210Z,9.34
2019-03-29T06:43:01.556Z,9.44
2019-03-29T06:45:30.917Z,9.57
2019-03-29T06:48:00.273Z,9.75
2019-03-29T06:50:29.643Z,10.02
2019-03-29T06:52:59.039Z,10.23
2019-03-29T06:55:28.472Z,10.46
2019-03-29T06:57:57.858Z,10.54
2019-03-29T07:00:27.236Z,10.52
2019-03-29T07:02:56.577Z,10.41
2019-03-29T07:05:25.936Z,10.28
2019-03-29T07:07:55.500Z,10.25
2019-03-29T07:10:24.946Z,10.41
2019-03-29T07:12:56.355Z,10.49
2019-03-29T07:15:25.377Z,10.70
2019-03-29T07:17:54.747Z,10.95
2019-03-29T07:20:24.085Z,11.20
2019-03-29T07:22:53.480Z,11.32
2019-03-29T07:25:22.824Z,11.52
2019-03-29T07:27:52.594Z,11.71
2019-03-29T07:30:22.691Z,11.92
2019-03-29T07:32:52.060Z,12.07
2019-03-29T07:35:23.085Z,12.24
2019-03-29T07:37:52.461Z,12.28
2019-03-29T07:40:21.796Z,12.31
2019-03-29T07:42:51.161Z,12.30
2019-03-29T07:45:20.503Z,12.15
2019-03-29T07:47:49.893Z,11.89
2019-03-29T07:50:19.374Z,11.80
2019-03-29T07:52:48.782Z,11.88
2019-03-29T07:55:18.143Z,12.12
2019-03-29T07:57:47.491Z,12.15
2019-03-29T08:00:20.207Z,12.22
2019-03-29T08:02:48.032Z,12.38
2019-03-29T08:05:18.104Z,12.45
2019-03-29T08:07:47.753Z,12.40
2019-03-29T08:10:25.735Z,12.22
2019-03-29T08:12:49.238Z,12.19
2019-03-29T08:15:19.047Z,12.30
2019-03-29T08:17:48.431Z,12.42
2019-03-29T08:20:40.353Z,12.43
2019-03-29T08:22:48.897Z,12.48
2019-03-29T08:25:18.261Z,12.52
2019-03-29T08:27:47.640Z,12.54
2019-03-29T08:30:17.047Z,12.67
2019-03-29T08:32:46.399Z,12.62
2019-03-29T08:35:15.844Z,12.65
2019-03-29T08:37:45.191Z,12.77
2019-03-29T08:40:14.545Z,12.85
2019-03-29T08:42:43.987Z,12.89
2019-03-29T08:45:13.328Z,12.87
2019-03-29T08:47:42.701Z,12.96
2019-03-29T08:50:12.124Z,12.98
2019-03-29T08:52:41.488Z,13.05
2019-03-29T08:55:10.855Z,13.40
2019-03-29T08:57:40.204Z,13.51
2019-03-29T09:00:09.611Z,13.63
2019-03-29T09:02:38.979Z,13.77
2019-03-29T09:05:08.316Z,13.90
2019-03-29T09:07:44.473Z,13.89
2019-03-29T09:10:19.413Z,13.93
2019-03-29T09:12:49.151Z,14.06
2019-03-29T09:15:18.862Z,14.15
2019-03-29T09:17:48.203Z,14.25
2019-03-29T09:20:17.587Z,14.19
2019-03-29T09:22:46.940Z,14.35
2019-03-29T09:25:16.315Z,14.60
2019-03-29T09:27:45.674Z,14.74
2019-03-29T09:30:15.021Z,14.89
2019-03-29T09:32:44.465Z,14.98
2019-03-29T09:35:13.816Z,15.02
2019-03-29T09:37:43.221Z,15.19
2019-03-29T09:40:14.097Z,15.27
2019-03-29T09:42:43.789Z,15.37
2019-03-29T09:45:13.159Z,15.28
2019-03-29T09:47:42.493Z,15.35
2019-03-29T09:50:11.872Z,15.50
2019-03-29T09:52:41.230Z,15.40
2019-03-29T09:55:10.582Z,15.55
2019-03-29T09:57:39.941Z,15.67
2019-03-29T10:00:19.074Z,15.76
2019-03-29T10:02:40.841Z,15.77
2019-03-29T10:05:10.185Z,15.92
2019-03-29T10:07:39.544Z,16.09
2019-03-29T10:10:08.927Z,16.07
2019-03-29T10:12:43.838Z,16.03
2019-03-29T10:15:11.348Z,16.08
2019-03-29T10:17:40.699Z,16.13
2019-03-29T10:20:10.055Z,16.11
2019-03-29T10:22:39.418Z,16.16
2019-03-29T10:25:19.312Z,16.38
2019-03-29T10:27:40.430Z,16.44
2019-03-29T10:30:10.070Z,16.49
2019-03-29T10:32:39.428Z,16.54
2019-03-29T10:35:08.802Z,16.58
2019-03-29T10:37:38.152Z,16.63
2019-03-29T10:40:07.884Z,16.57
2019-03-29T10:42:39.966Z,16.62
2019-03-29T10:45:08.359Z,16.70
2019-03-29T10:47:43.573Z,16.75
2019-03-29T10:50:08.809Z,16.83
2019-03-29T10:52:38.200Z,17.09
2019-03-29T10:55:07.616Z,17.20
2019-03-29T10:57:36.951Z,17.29
2019-03-29T11:00:10.277Z,17.30
2019-03-29T11:02:39.643Z,17.42
2019-03-29T11:05:09.025Z,17.59
2019-03-29T11:07:38.446Z,17.72
2019-03-29T11:10:07.859Z,17.90
2019-03-29T11:12:37.228Z,18.15
2019-03-29T11:15:07.646Z,18.14
2019-03-29T11:17:37.026Z,18.17
2019-03-29T11:20:06.379Z,18.36
2019-03-29T11:22:35.794Z,18.47
2019-03-29T11:25:06.888Z,18.56
2019-03-29T11:27:36.314Z,18.51
2019-03-29T11:30:07.316Z,18.63
2019-03-29T11:32:36.980Z,18.75
2019-03-29T11:35:06.603Z,18.68
2019-03-29T11:37:35.979Z,18.62
2019-03-29T11:40:09.651Z,18.66
2019-03-29T11:42:39.033Z,18.76
2019-03-29T11:45:08.381Z,18.83
2019-03-29T11:47:37.721Z,18.93
2019-03-29T11:50:07.369Z,18.90
2019-03-29T11:52:36.728Z,18.72
2019-03-29T11:55:07.480Z,19.02
2019-03-29T11:57:36.837Z,19.18
2019-03-29T12:00:10.996Z,19.18
2019-03-29T12:02:40.363Z,19.30
2019-03-29T12:05:09.717Z,19.35
2019-03-29T12:07:39.095Z,19.47
2019-03-29T12:10:08.506Z,19.41
2019-03-29T12:12:37.851Z,19.50
2019-03-29T12:15:09.051Z,19.75
2019-03-29T12:17:39.170Z,19.74
2019-03-29T12:20:08.593Z,19.60
2019-03-29T12:22:37.958Z,19.44
2019-03-29T12:25:07.771Z,19.53
2019-03-29T12:27:37.148Z,19.74
2019-03-29T12:30:09.647Z,19.90
2019-03-29T12:32:39.004Z,20.02
2019-03-29T12:35:10.011Z,20.20
2019-03-29T12:37:39.614Z,20.30
2019-03-29T12:40:09.028Z,20.22
2019-03-29T12:42:38.396Z,20.34
2019-03-29T12:45:07.815Z,20.40
2019-03-29T12:47:37.177Z,20.15
2019-03-29T12:50:07.910Z,20.32
2019-03-29T12:52:37.255Z,20.44
2019-03-29T12:55:06.972Z,20.61
2019-03-29T12:57:38.968Z,20.69
2019-03-29T13:00:10.442Z,20.64
2019-03-29T13:02:39.784Z,20.79
2019-03-29T13:05:09.155Z,20.83
2019-03-29T13:07:38.569Z,20.73
2019-03-29T13:10:09.185Z,20.85
2019-03-29T13:12:38.546Z,20.75
2019-03-29T13:15:08.649Z,20.89
2019-03-29T13:17:38.567Z,21.02
2019-03-29T13:20:08.110Z,21.13
2019-03-29T13:22:37.455Z,21.27
2019-03-29T13:25:07.695Z,20.92
2019-03-29T13:27:37.220Z,20.75
2019-03-29T13:30:08.839Z,20.83
2019-03-29T13:32:38.189Z,21.07
2019-03-29T13:35:07.976Z,21.28
2019-03-29T13:37:37.338Z,21.58
2019-03-29T13:40:08.875Z,21.71
2019-03-29T13:42:38.241Z,21.78
2019-03-29T13:45:08.743Z,22.07
2019-03-29T13:47:38.439Z,22.13
2019-03-29T13:50:10.384Z,22.21
2019-03-29T13:52:39.734Z,22.23
2019-03-29T13:55:08.838Z,22.62
2019-03-29T13:57:38.219Z,22.92
2019-03-29T14:00:12.170Z,23.01
2019-03-29T14:02:41.530Z,22.92
2019-03-29T14:05:10.903Z,22.59
2019-03-29T14:07:40.322Z,23.04
2019-03-29T14:10:09.811Z,23.05
2019-03-29T14:12:39.929Z,23.15
2019-03-29T14:15:10.506Z,23.76
2019-03-29T14:17:39.934Z,24.03
2019-03-29T14:20:10.598Z,24.42
2019-03-29T14:22:39.944Z,24.63
2019-03-29T14:25:09.290Z,25.01
2019-03-29T14:27:38.699Z,25.17
2019-03-29T14:30:08.997Z,25.13
2019-03-29T14:32:38.382Z,25.41
2019-03-29T14:35:08.772Z,25.73
2019-03-29T14:37:38.128Z,25.92
2019-03-29T14:40:08.599Z,25.91
2019-03-29T14:42:37.943Z,25.78
2019-03-29T14:45:07.975Z,25.83
2019-03-29T14:47:43.001Z,24.98
2019-03-29T14:50:08.986Z,25.13
2019-03-29T14:52:38.335Z,25.54
2019-03-29T14:55:08.029Z,25.83
2019-03-29T14:57:37.412Z,26.28
2019-03-29T15:00:09.912Z,26.53
2019-03-29T15:02:39.280Z,26.55
2019-03-29T15:05:09.179Z,26.92
2019-03-29T15:07:38.858Z,27.14
2019-03-29T15:10:11.573Z,27.43
2019-03-29T15:12:40.917Z,27.47
2019-03-29T15:15:10.253Z,27.17
2019-03-29T15:17:39.622Z,27.37
2019-03-29T15:20:08.948Z,27.72
2019-03-29T15:22:38.344Z,27.92
2019-03-29T15:25:07.671Z,27.80
2019-03-29T15:27:37.026Z,27.86
2019-03-29T15:30:08.036Z,28.09
2019-03-29T15:32:56.802Z,27.88
2019-03-29T15:35:26.186Z,27.66
2019-03-29T15:37:55.535Z,27.51
2019-03-29T15:40:24.877Z,27.90
2019-03-29T15:42:54.243Z,27.64
2019-03-29T15:45:23.586Z,27.30
2019-03-29T15:47:52.955Z,27.57
2019-03-29T15:50:22.301Z,27.71
2019-03-29T15:52:51.661Z,27.73
2019-03-29T15:55:21.034Z,27.66
2019-03-29T15:57:50.386Z,27.76
2019-03-29T16:00:19.749Z,27.69
2019-03-29T16:02:49.110Z,27.62
2019-03-29T16:05:18.453Z,27.60
2019-03-29T16:07:47.890Z,27.78
2019-03-29T16:10:17.398Z,27.61
2019-03-29T16:12:46.783Z,27.68
2019-03-29T16:15:16.393Z,27.38
2019-03-29T16:17:46.101Z,27.36
2019-03-29T16:20:15.471Z,27.48
2019-03-29T16:22:44.793Z,27.33
2019-03-29T16:25:14.178Z,27.37
2019-03-29T16:27:43.533Z,26.94
2019-03-29T16:30:13.170Z,26.61
2019-03-29T16:32:42.512Z,26.47
2019-03-29T16:35:11.860Z,25.98
2019-03-29T16:37:41.226Z,25.27
2019-03-29T16:40:10.594Z,24.55
2019-03-29T16:42:39.929Z,24.05
2019-03-29T16:45:09.305Z,23.56
2019-03-29T16:47:38.634Z,23.00
2019-03-29T16:50:08.346Z,22.45
2019-03-29T16:52:37.692Z,22.03
2019-03-29T16:55:13.778Z,21.59
2019-03-29T16:57:38.946Z,21.22
2019-03-29T17:00:12.424Z,20.86
2019-03-29T17:02:41.598Z,20.53
2019-03-29T17:05:10.935Z,20.26
2019-03-29T17:07:40.298Z,20.05
2019-03-29T17:10:09.646Z,19.82
2019-03-29T17:12:38.972Z,19.70
2019-03-29T17:15:08.367Z,19.53
2019-03-29T17:17:37.710Z,19.40
2019-03-29T17:20:10.043Z,19.23
2019-03-29T17:22:42.953Z,19.10
2019-03-29T17:25:12.094Z,18.95
2019-03-29T17:27:41.470Z,18.86
2019-03-29T17:30:12.221Z,18.66
2019-03-29T17:32:41.556Z,18.50
2019-03-29T17:35:10.916Z,18.31
2019-03-29T17:37:40.307Z,18.11
2019-03-29T17:40:09.939Z,17.94
2019-03-29T17:42:39.302Z,17.74
2019-03-29T17:45:08.628Z,17.61
2019-03-29T17:47:38.061Z,17.40
2019-03-29T17:50:07.658Z,17.24
2019-03-29T17:52:37.016Z,17.07
2019-03-29T17:55:07.596Z,16.91
2019-03-29T17:57:36.938Z,16.77
2019-03-29T18:00:08.609Z,16.59
2019-03-29T18:02:37.944Z,16.47
2019-03-29T18:05:08.186Z,16.34
2019-03-29T18:07:37.526Z,16.20
2019-03-29T18:10:09.063Z,16.07
2019-03-29T18:12:38.428Z,15.91
2019-03-29T18:15:08.586Z,15.76
2019-03-29T18:17:37.935Z,15.60
2019-03-29T18:20:08.593Z,15.50
2019-03-29T18:22:37.936Z,15.43
2019-03-29T18:25:08.015Z,15.33
2019-03-29T18:27:37.354Z,15.25
2019-03-29T18:30:08.998Z,15.12
2019-03-29T18:32:38.722Z,15.06
2019-03-29T18:35:08.295Z,14.93
2019-03-29T18:37:38.467Z,14.82
2019-03-29T18:40:09.431Z,14.76
2019-03-29T18:42:38.780Z,14.72
2019-03-29T18:45:08.323Z,14.59
2019-03-29T18:47:37.649Z,14.55
2019-03-29T18:50:07.304Z,14.49
2019-03-29T18:52:36.657Z,14.43
2019-03-29T18:55:07.073Z,14.36
2019-03-29T18:57:36.429Z,14.30
2019-03-29T19:00:07.679Z,14.27
2019-03-29T19:02:38.264Z,14.14
2019-03-29T19:05:07.675Z,14.07
2019-03-29T19:07:37.031Z,13.98
2019-03-29T19:10:07.722Z,13.94
2019-03-29T19:12:37.088Z,13.87
2019-03-29T19:15:07.204Z,13.85
2019-03-29T19:17:37.035Z,13.80
2019-03-29T19:20:10.091Z,13.78
2019-03-29T19:22:38.052Z,13.74
2019-03-29T19:25:07.805Z,13.62
2019-03-29T19:27:37.179Z,13.54
2019-03-29T19:30:11.104Z,13.53
2019-03-29T19:32:40.438Z,13.48
2019-03-29T19:35:09.800Z,13.48
2019-03-29T19:37:39.211Z,13.36
2019-03-29T19:40:08.604Z,13.30
2019-03-29T19:42:37.952Z,13.25
2019-03-29T19:45:09.707Z,13.21
2019-03-29T19:47:39.247Z,13.17
2019-03-29T19:50:08.595Z,13.12
2019-03-29T19:52:37.938Z,13.09
2019-03-29T19:55:07.300Z,13.02
2019-03-29T19:57:36.744Z,13.04
2019-03-29T20:00:14.108Z,12.99
2019-03-29T20:02:43.667Z,12.96
2019-03-29T20:05:27.577Z,12.90
2019-03-29T20:07:57.329Z,12.88
2019-03-29T20:10:26.660Z,12.82
2019-03-29T20:12:56.029Z,12.74
2019-03-29T20:15:25.372Z,12.71
2019-03-29T20:17:54.754Z,12.62
2019-03-29T20:20:25.711Z,12.58
2019-03-29T20:22:55.889Z,12.51
2019-03-29T20:25:26.034Z,12.44
2019-03-29T20:27:58.454Z,12.40
2019-03-29T20:30:26.700Z,12.38
2019-03-29T20:32:56.042Z,12.38
2019-03-29T20:35:25.393Z,12.34
2019-03-29T20:37:54.759Z,12.35
2019-03-29T20:40:24.396Z,12.32
2019-03-29T20:42:53.792Z,12.33
2019-03-29T20:45:23.153Z,12.35
2019-03-29T20:47:52.499Z,12.32
2019-03-29T20:50:21.923Z,12.25
2019-03-29T20:52:51.278Z,12.19
2019-03-29T20:55:20.661Z,12.16
2019-03-29T20:57:50.005Z,12.13
2019-03-29T21:00:19.501Z,12.03
2019-03-29T21:02:48.851Z,11.95
2019-03-29T21:05:18.204Z,11.88
2019-03-29T21:07:47.574Z,11.81
2019-03-29T21:10:18.570Z,11.79
2019-03-29T21:12:47.949Z,11.69
2019-03-29T21:15:17.536Z,11.66
2019-03-29T21:17:56.753Z,11.58
2019-03-29T21:20:18.096Z,11.62
2019-03-29T21:22:47.447Z,11.58
2019-03-29T21:25:16.857Z,11.54
2019-03-29T21:27:46.222Z,11.49
2019-03-29T21:30:15.643Z,11.46
2019-03-29T21:32:45.110Z,11.41
2019-03-29T21:35:14.462Z,11.48
2019-03-29T21:37:43.810Z,11.49
2019-03-29T21:40:13.168Z,11.42
2019-03-29T21:42:42.517Z,11.35
2019-03-29T21:45:12.422Z,11.34
2019-03-29T21:47:41.758Z,11.29
2019-03-29T21:50:11.107Z,11.23
2019-03-29T21:52:40.483Z,11.18
2019-03-29T21:55:09.832Z,11.12
2019-03-29T21:57:39.198Z,11.08
2019-03-29T22:00:12.724Z,11.03
2019-03-29T22:02:42.066Z,10.98
2019-03-29T22:05:11.443Z,10.93
2019-03-29T22:07:40.770Z,10.94
2019-03-29T22:10:11.085Z,10.95
2019-03-29T22:12:43.077Z,10.92
2019-03-29T22:15:11.513Z,10.88
2019-03-29T22:17:40.871Z,10.82
2019-03-29T22:20:10.279Z,10.87
2019-03-29T22:22:39.671Z,10.81
2019-03-29T22:25:12.195Z,10.85
2019-03-29T22:27:41.536Z,10.82
2019-03-29T22:30:11.219Z,10.84
2019-03-29T22:32:40.558Z,10.73
2019-03-29T22:35:10.040Z,10.68
2019-03-29T22:37:39.412Z,10.64
2019-03-29T22:40:08.969Z,10.64
2019-03-29T22:42:38.334Z,10.56
2019-03-29T22:45:09.383Z,10.50
2019-03-29T22:47:38.800Z,10.48
2019-03-29T22:50:08.209Z,10.48
2019-03-29T22:52:37.578Z,10.45
2019-03-29T22:55:07.767Z,10.43
2019-03-29T22:57:37.124Z,10.45
2019-03-29T23:00:14.150Z,10.44
2019-03-29T23:02:43.486Z,10.39
2019-03-29T23:05:12.857Z,10.31
2019-03-29T23:07:42.219Z,10.33
2019-03-29T23:10:11.574Z,10.24
2019-03-29T23:12:40.946Z,10.28
2019-03-29T23:15:10.293Z,10.26
2019-03-29T23:17:39.667Z,10.22
2019-03-29T23:20:09.014Z,10.18
2019-03-29T23:22:38.361Z,10.12
2019-03-29T23:25:07.731Z,10.11
2019-03-29T23:27:37.086Z,10.09
2019-03-29T23:30:07.187Z,10.04
2019-03-29T23:32:36.527Z,9.95
2019-03-29T23:35:07.667Z,9.85
2019-03-29T23:37:37.084Z,9.80
2019-03-29T23:40:06.904Z,9.81
2019-03-29T23:42:36.341Z,9.75
2019-03-29T23:45:08.651Z,9.74
2019-03-29T23:47:37.986Z,9.76
2019-03-29T23:50:08.188Z,9.76
2019-03-29T23:52:37.525Z,9.74
2019-03-29T23:55:06.916Z,9.68
2019-03-29T23:57:36.246Z,9.62
